Portada
METAR-TAF:

METAR-TAF

Aeroports :

Ulan-Udè, Rússia

latitud: 51-50N, longitud: 107-36E, altitud: 510 m

Observació

L'informe es va fer fa 23 minuts, a les 01:00 UTC
Vent 6 kt del Nord-Oest, variant entre Oest/Sud-Oest i Nord/Nord-Oest
Temperatura 19°C
Humitat 68%
Pressió 1005 hPa
Visibilitat 10 km o més
Cel ennuvolat a una alçada de 4000 ft, Cumulonimbus.

METAR: UIUU 070100Z 31003MPS 240V340 9999 BKN040CB 19/13 Q1005 R26/CLRD60 NOSIG RMK QFE710/0947

Hora: 09:23 (01:23 UTC)

Pronòstic

L'informe es va fer fa 2 hores i 23 minuts, a les 23:00 UTC
Pronòstic vàlid del 07 a les 00 UTC al 07 a les 24 UTC
Vent 12 kt del Nord-Oest amb ràfegues de 23 kt
Visibilitat 10 km o més
Cel ennuvolat a una alçada de 2500 ft, Cumulonimbus.
Temporalment
l' 07 a les 00 UTC al 07 a les 24 UTC
Vent 6 kt del Nord/Nord-Est amb ràfegues de 16 kt
Cel cobert a una alçada de 1400 ft, Cumulonimbus.
xàfecs de pluja

TAF: UIUU 062300Z 0700/0724 32006G12MPS 9999 BKN025CB TEMPO 0700/0724 02003G08MPS -SHRA OVC014CB

Observacions i pronòstics meteorològics de més de 4000 aeroports (METAR i TAF).

Les estacions disponibles són els punts grocs i vermells al mapa.

Posi el ratolí al punt desitjat per veure el nom de l'estació.

Feu clic per veure les observacions i els pronòstics meteorològics.

Per canviar el mapa: feu clic els botons verds amb una creu de color negre per apropar; al botó verd amb un guió per allunyar la imatge; o en les fletxes verdes per a mapes adjacents.


METAR-TAF: